KPOE

Polk AAF Airport

Fort Polk, Louisiana, USA
METAR KPOE 210458Z AUTO 26010KT 10SM CLR 27/25 A3001 RMK AO2 LTG DSNT NE SLP160 T02740246
Observed Flight Rules
Aug-21 @ 04:58 UTC (9 hours ago) Visual Flight Rules
Wind Visibility Clouds
260° at 10 knots 10 miles
  • Clear skies
Temperatures Readings
Current 27°C / 81°F
Dewpoint 25°C / 77°F
Humidity 89%
Altimeter 30.01" Hg
Pressure 1016 hPa
Elevation 101
METAR KPOE 210458Z AUTO 26010KT 10SM CLR 27/25 A3001 RMK AO2 LTG DSNT NE SLP160 T02740246
Observed Flight Rules
Aug-21 @ 04:58 UTC
(9 hours ago)
VFR
Wind Visibility
260° at 10 knots 10 miles
Clouds
  • Clear skies
Temperature Dewpoint
27°C / 81°F 25°C / 77°F
Humidity Altimeter Pressure
89% 30.01" Hg 1016 hPa